sensor_id;sensor_type;location;lat;lon;timestamp;pressure;altitude;pressure_sealevel;temperature;humidity
18201;BME280;9226;47.858;9.594;2023-08-07T00:00:36;95265.06;;;12.89;78.30
18201;BME280;9226;47.858;9.594;2023-08-07T00:03:01;95257.34;;;12.85;77.56
18201;BME280;9226;47.858;9.594;2023-08-07T00:05:27;95255.56;;;12.66;78.46
18201;BME280;9226;47.858;9.594;2023-08-07T00:07:53;95257.78;;;12.71;77.48
18201;BME280;9226;47.858;9.594;2023-08-07T00:10:18;95258.91;;;12.78;77.00
18201;BME280;9226;47.858;9.594;2023-08-07T00:12:44;95254.84;;;12.74;76.89
18201;BME280;9226;47.858;9.594;2023-08-07T00:15:09;95255.56;;;12.76;76.76
18201;BME280;9226;47.858;9.594;2023-08-07T00:17:36;95257.66;;;12.73;76.79
18201;BME280;9226;47.858;9.594;2023-08-07T00:20:01;95252.63;;;12.60;77.01
18201;BME280;9226;47.858;9.594;2023-08-07T00:22:27;95246.75;;;12.56;77.03
18201;BME280;9226;47.858;9.594;2023-08-07T00:24:52;95255.56;;;12.57;77.56
18201;BME280;9226;47.858;9.594;2023-08-07T00:27:18;95256.00;;;12.62;76.76
18201;BME280;9226;47.858;9.594;2023-08-07T00:29:43;95250.13;;;12.58;77.03
18201;BME280;9226;47.858;9.594;2023-08-07T00:32:09;95254.19;;;12.53;77.31
18201;BME280;9226;47.858;9.594;2023-08-07T00:34:34;95260.22;;;12.55;76.99
18201;BME280;9226;47.858;9.594;2023-08-07T00:37:00;95251.53;;;12.53;76.84
18201;BME280;9226;47.858;9.594;2023-08-07T00:39:25;95262.16;;;12.62;76.38
18201;BME280;9226;47.858;9.594;2023-08-07T00:41:50;95256.16;;;12.60;76.82
18201;BME280;9226;47.858;9.594;2023-08-07T00:44:16;95246.19;;;12.62;76.56
18201;BME280;9226;47.858;9.594;2023-08-07T00:46:42;95249.84;;;12.61;76.51
18201;BME280;9226;47.858;9.594;2023-08-07T00:49:09;95248.72;;;12.64;76.27
18201;BME280;9226;47.858;9.594;2023-08-07T00:51:36;95245.78;;;12.57;77.10
18201;BME280;9226;47.858;9.594;2023-08-07T00:54:04;95237.38;;;12.62;76.58
18201;BME280;9226;47.858;9.594;2023-08-07T00:56:30;95241.84;;;12.61;76.71
18201;BME280;9226;47.858;9.594;2023-08-07T00:58:58;95247.44;;;12.58;76.95
18201;BME280;9226;47.858;9.594;2023-08-07T01:01:24;95238.78;;;12.56;77.38
18201;BME280;9226;47.858;9.594;2023-08-07T01:03:49;95244.66;;;12.60;77.30
18201;BME280;9226;47.858;9.594;2023-08-07T01:06:15;95253.03;;;12.65;77.20
18201;BME280;9226;47.858;9.594;2023-08-07T01:08:41;95242.56;;;12.63;77.90
18201;BME280;9226;47.858;9.594;2023-08-07T01:13:53;95252.91;;;12.66;77.44
18201;BME280;9226;47.858;9.594;2023-08-07T01:16:29;95247.88;;;12.63;78.25
18201;BME280;9226;47.858;9.594;2023-08-07T01:18:57;95246.59;;;12.67;77.84
18201;BME280;9226;47.858;9.594;2023-08-07T01:21:25;95248.28;;;12.69;77.73
18201;BME280;9226;47.858;9.594;2023-08-07T01:23:50;95251.94;;;12.67;78.09
18201;BME280;9226;47.858;9.594;2023-08-07T01:26:18;95248.16;;;12.70;77.99
18201;BME280;9226;47.858;9.594;2023-08-07T01:28:56;95244.09;;;12.66;77.87
18201;BME280;9226;47.858;9.594;2023-08-07T01:31:24;95240.84;;;12.72;78.03
18201;BME280;9226;47.858;9.594;2023-08-07T01:33:56;95241.28;;;12.67;77.94
18201;BME280;9226;47.858;9.594;2023-08-07T01:36:23;95250.81;;;12.70;77.81
18201;BME280;9226;47.858;9.594;2023-08-07T01:38:50;95242.09;;;12.68;78.00
18201;BME280;9226;47.858;9.594;2023-08-07T01:41:17;95250.25;;;12.76;77.64
18201;BME280;9226;47.858;9.594;2023-08-07T01:43:43;95245.22;;;12.73;77.17
18201;BME280;9226;47.858;9.594;2023-08-07T01:46:10;95244.94;;;12.76;77.00
18201;BME280;9226;47.858;9.594;2023-08-07T01:48:35;95248.09;;;12.90;76.18
18201;BME280;9226;47.858;9.594;2023-08-07T01:51:01;95247.00;;;12.82;76.26
18201;BME280;9226;47.858;9.594;2023-08-07T01:53:26;95256.66;;;12.83;77.19
18201;BME280;9226;47.858;9.594;2023-08-07T01:55:51;95255.28;;;12.60;78.69
18201;BME280;9226;47.858;9.594;2023-08-07T01:58:17;95256.56;;;12.65;78.61
18201;BME280;9226;47.858;9.594;2023-08-07T02:00:42;95260.91;;;12.57;79.58
18201;BME280;9226;47.858;9.594;2023-08-07T02:03:07;95264.97;;;12.61;78.96
18201;BME280;9226;47.858;9.594;2023-08-07T02:05:33;95258.38;;;12.55;78.72
18201;BME280;9226;47.858;9.594;2023-08-07T02:07:59;95249.56;;;12.55;79.02
18201;BME280;9226;47.858;9.594;2023-08-07T02:10:24;95257.56;;;12.45;79.47
18201;BME280;9226;47.858;9.594;2023-08-07T02:12:50;95252.78;;;12.48;79.34
18201;BME280;9226;47.858;9.594;2023-08-07T02:15:15;95258.94;;;12.49;79.59
18201;BME280;9226;47.858;9.594;2023-08-07T02:17:41;95261.19;;;12.54;78.73
18201;BME280;9226;47.858;9.594;2023-08-07T02:20:08;95265.53;;;12.45;79.25
18201;BME280;9226;47.858;9.594;2023-08-07T02:22:33;95258.66;;;12.42;78.99
18201;BME280;9226;47.858;9.594;2023-08-07T02:24:59;95254.03;;;12.44;78.93
18201;BME280;9226;47.858;9.594;2023-08-07T02:27:24;95262.59;;;12.48;78.82
18201;BME280;9226;47.858;9.594;2023-08-07T02:29:50;95270.88;;;12.35;79.36
18201;BME280;9226;47.858;9.594;2023-08-07T02:32:16;95264.56;;;12.36;79.55
18201;BME280;9226;47.858;9.594;2023-08-07T02:34:42;95265.09;;;12.30;79.76
18201;BME280;9226;47.858;9.594;2023-08-07T02:37:07;95272.13;;;12.31;79.64
18201;BME280;9226;47.858;9.594;2023-08-07T02:39:33;95273.53;;;12.35;79.44
18201;BME280;9226;47.858;9.594;2023-08-07T02:41:58;95270.16;;;12.33;79.56
18201;BME280;9226;47.858;9.594;2023-08-07T02:44:24;95273.81;;;12.32;79.56
18201;BME280;9226;47.858;9.594;2023-08-07T02:46:49;95282.47;;;12.34;79.38
18201;BME280;9226;47.858;9.594;2023-08-07T02:49:14;95283.03;;;12.28;79.78
18201;BME280;9226;47.858;9.594;2023-08-07T02:51:40;95277.03;;;12.26;80.30
18201;BME280;9226;47.858;9.594;2023-08-07T02:54:05;95290.88;;;12.39;79.48
18201;BME280;9226;47.858;9.594;2023-08-07T02:56:30;95295.38;;;12.29;80.25
18201;BME280;9226;47.858;9.594;2023-08-07T02:58:56;95300.53;;;12.40;79.56
18201;BME280;9226;47.858;9.594;2023-08-07T03:01:23;95297.19;;;12.38;79.53
18201;BME280;9226;47.858;9.594;2023-08-07T03:03:48;95295.91;;;12.42;79.13
18201;BME280;9226;47.858;9.594;2023-08-07T03:06:14;95305.19;;;12.38;79.56
18201;BME280;9226;47.858;9.594;2023-08-07T03:08:39;95301.78;;;12.36;79.36
18201;BME280;9226;47.858;9.594;2023-08-07T03:11:05;95303.06;;;12.32;79.97
18201;BME280;9226;47.858;9.594;2023-08-07T03:13:31;95305.72;;;12.32;79.70
18201;BME280;9226;47.858;9.594;2023-08-07T03:16:00;95315.22;;;12.25;79.53
18201;BME280;9226;47.858;9.594;2023-08-07T03:18:26;95316.66;;;12.29;79.62
18201;BME280;9226;47.858;9.594;2023-08-07T03:20:51;95321.28;;;12.37;78.96
18201;BME280;9226;47.858;9.594;2023-08-07T03:23:17;95322.81;;;12.39;78.63
18201;BME280;9226;47.858;9.594;2023-08-07T03:25:42;95320.97;;;12.30;78.92
18201;BME280;9226;47.858;9.594;2023-08-07T03:28:07;95316.50;;;12.30;78.93
18201;BME280;9226;47.858;9.594;2023-08-07T03:30:33;95328.94;;;12.30;78.64
18201;BME280;9226;47.858;9.594;2023-08-07T03:32:58;95321.97;;;12.29;78.98
18201;BME280;9226;47.858;9.594;2023-08-07T03:35:23;95320.56;;;12.25;79.12
18201;BME280;9226;47.858;9.594;2023-08-07T03:37:49;95320.28;;;12.28;78.47
18201;BME280;9226;47.858;9.594;2023-08-07T03:40:14;95318.84;;;12.24;78.74
18201;BME280;9226;47.858;9.594;2023-08-07T03:42:40;95323.22;;;12.25;78.83
18201;BME280;9226;47.858;9.594;2023-08-07T03:45:05;95321.66;;;12.22;78.70
18201;BME280;9226;47.858;9.594;2023-08-07T03:47:31;95326.28;;;12.20;78.58
18201;BME280;9226;47.858;9.594;2023-08-07T03:49:56;95328.66;;;12.13;78.89
18201;BME280;9226;47.858;9.594;2023-08-07T03:52:21;95336.22;;;12.08;78.99
18201;BME280;9226;47.858;9.594;2023-08-07T03:54:47;95340.66;;;12.08;78.86
18201;BME280;9226;47.858;9.594;2023-08-07T03:57:12;95343.31;;;12.08;78.66
18201;BME280;9226;47.858;9.594;2023-08-07T03:59:38;95348.50;;;12.09;78.43
18201;BME280;9226;47.858;9.594;2023-08-07T04:02:03;95342.06;;;12.02;78.14
18201;BME280;9226;47.858;9.594;2023-08-07T04:04:29;95351.31;;;12.08;77.83
18201;BME280;9226;47.858;9.594;2023-08-07T04:06:54;95350.47;;;12.07;77.63
18201;BME280;9226;47.858;9.594;2023-08-07T04:09:19;95357.88;;;12.04;77.51
18201;BME280;9226;47.858;9.594;2023-08-07T04:11:45;95352.00;;;12.00;77.80
18201;BME280;9226;47.858;9.594;2023-08-07T04:14:10;95358.28;;;11.99;77.56
18201;BME280;9226;47.858;9.594;2023-08-07T04:16:36;95359.25;;;11.98;77.77
18201;BME280;9226;47.858;9.594;2023-08-07T04:19:02;95355.38;;;12.02;77.55
18201;BME280;9226;47.858;9.594;2023-08-07T04:21:29;95357.16;;;12.02;77.73
18201;BME280;9226;47.858;9.594;2023-08-07T04:23:54;95361.91;;;11.98;77.84
18201;BME280;9226;47.858;9.594;2023-08-07T04:26:20;95360.53;;;11.94;77.82
18201;BME280;9226;47.858;9.594;2023-08-07T04:28:45;95358.56;;;11.96;77.65
18201;BME280;9226;47.858;9.594;2023-08-07T04:31:10;95360.53;;;11.94;77.80
18201;BME280;9226;47.858;9.594;2023-08-07T04:33:36;95366.53;;;11.96;77.95
18201;BME280;9226;47.858;9.594;2023-08-07T04:36:01;95363.34;;;12.02;78.16
18201;BME280;9226;47.858;9.594;2023-08-07T04:38:27;95363.06;;;12.05;77.97
18201;BME280;9226;47.858;9.594;2023-08-07T04:40:52;95366.44;;;12.07;77.89
18201;BME280;9226;47.858;9.594;2023-08-07T04:43:18;95365.63;;;12.17;77.56
18201;BME280;9226;47.858;9.594;2023-08-07T04:45:46;95366.59;;;12.16;77.57
18201;BME280;9226;47.858;9.594;2023-08-07T04:48:13;95376.41;;;12.25;77.40
18201;BME280;9226;47.858;9.594;2023-08-07T04:50:38;95365.22;;;12.31;77.30
18201;BME280;9226;47.858;9.594;2023-08-07T04:53:05;95369.84;;;12.29;77.68
18201;BME280;9226;47.858;9.594;2023-08-07T04:55:31;95372.66;;;12.27;77.81
18201;BME280;9226;47.858;9.594;2023-08-07T04:57:57;95365.50;;;12.28;77.57
18201;BME280;9226;47.858;9.594;2023-08-07T05:00:23;95374.63;;;12.35;77.83
18201;BME280;9226;47.858;9.594;2023-08-07T05:02:48;95380.34;;;12.21;78.83
18201;BME280;9226;47.858;9.594;2023-08-07T05:05:14;95376.28;;;12.36;77.87
18201;BME280;9226;47.858;9.594;2023-08-07T05:07:40;95375.88;;;12.31;78.69
18201;BME280;9226;47.858;9.594;2023-08-07T05:10:06;95381.75;;;12.35;78.30
18201;BME280;9226;47.858;9.594;2023-08-07T05:12:32;95380.75;;;12.26;78.84
18201;BME280;9226;47.858;9.594;2023-08-07T05:14:57;95376.25;;;12.17;79.70
18201;BME280;9226;47.858;9.594;2023-08-07T05:17:22;95370.66;;;12.20;80.04
18201;BME280;9226;47.858;9.594;2023-08-07T05:19:48;95372.78;;;12.26;79.68
18201;BME280;9226;47.858;9.594;2023-08-07T05:22:13;95369.31;;;12.35;79.25
18201;BME280;9226;47.858;9.594;2023-08-07T05:24:39;95365.38;;;12.39;79.71
18201;BME280;9226;47.858;9.594;2023-08-07T05:27:08;95356.56;;;12.39;79.98
18201;BME280;9226;47.858;9.594;2023-08-07T05:29:35;95362.03;;;12.37;80.51
18201;BME280;9226;47.858;9.594;2023-08-07T05:32:08;95367.47;;;12.36;79.98
18201;BME280;9226;47.858;9.594;2023-08-07T05:34:33;95368.75;;;12.41;79.98
18201;BME280;9226;47.858;9.594;2023-08-07T05:36:59;95375.75;;;12.42;80.23
18201;BME280;9226;47.858;9.594;2023-08-07T05:39:24;95380.09;;;12.43;80.15
18201;BME280;9226;47.858;9.594;2023-08-07T05:41:49;95383.63;;;12.73;80.47
18201;BME280;9226;47.858;9.594;2023-08-07T05:44:16;95375.63;;;12.93;81.02
18201;BME280;9226;47.858;9.594;2023-08-07T05:46:41;95380.81;;;13.24;80.68
18201;BME280;9226;47.858;9.594;2023-08-07T05:49:06;95371.97;;;13.33;81.07
18201;BME280;9226;47.858;9.594;2023-08-07T05:51:32;95373.94;;;13.78;78.54
18201;BME280;9226;47.858;9.594;2023-08-07T05:53:57;95384.03;;;13.84;77.36
18201;BME280;9226;47.858;9.594;2023-08-07T05:56:22;95386.03;;;13.72;77.27
18201;BME280;9226;47.858;9.594;2023-08-07T05:58:48;95381.16;;;13.68;77.45
18201;BME280;9226;47.858;9.594;2023-08-07T06:01:13;95379.50;;;13.57;77.96
18201;BME280;9226;47.858;9.594;2023-08-07T06:03:41;95378.88;;;13.73;77.34
18201;BME280;9226;47.858;9.594;2023-08-07T06:06:07;95376.81;;;13.67;77.75
18201;BME280;9226;47.858;9.594;2023-08-07T06:08:32;95380.09;;;13.79;78.75
18201;BME280;9226;47.858;9.594;2023-08-07T06:10:58;95384.69;;;14.24;79.16
18201;BME280;9226;47.858;9.594;2023-08-07T06:13:23;95378.47;;;14.33;76.63
18201;BME280;9226;47.858;9.594;2023-08-07T06:15:48;95385.97;;;14.47;75.79
18201;BME280;9226;47.858;9.594;2023-08-07T06:18:14;95390.63;;;14.45;75.12
18201;BME280;9226;47.858;9.594;2023-08-07T06:20:39;95381.66;;;14.37;75.36
18201;BME280;9226;47.858;9.594;2023-08-07T06:23:05;95389.66;;;14.37;74.85
18201;BME280;9226;47.858;9.594;2023-08-07T06:25:30;95385.22;;;14.27;75.22
18201;BME280;9226;47.858;9.594;2023-08-07T06:27:55;95387.13;;;14.17;75.37
18201;BME280;9226;47.858;9.594;2023-08-07T06:30:21;95382.84;;;14.24;75.57
18201;BME280;9226;47.858;9.594;2023-08-07T06:32:46;95381.69;;;14.09;76.44
18201;BME280;9226;47.858;9.594;2023-08-07T06:35:11;95386.81;;;14.20;75.58
18201;BME280;9226;47.858;9.594;2023-08-07T06:37:37;95391.44;;;14.18;75.80
18201;BME280;9226;47.858;9.594;2023-08-07T06:40:03;95388.63;;;14.20;75.78
18201;BME280;9226;47.858;9.594;2023-08-07T06:42:28;95390.84;;;14.24;75.59
18201;BME280;9226;47.858;9.594;2023-08-07T06:44:54;95395.41;;;14.14;76.47
18201;BME280;9226;47.858;9.594;2023-08-07T06:47:19;95388.34;;;14.23;76.21
18201;BME280;9226;47.858;9.594;2023-08-07T06:49:44;95392.00;;;14.22;76.54
18201;BME280;9226;47.858;9.594;2023-08-07T06:52:10;95389.69;;;14.09;77.01
18201;BME280;9226;47.858;9.594;2023-08-07T06:54:35;95389.59;;;14.46;77.53
18201;BME280;9226;47.858;9.594;2023-08-07T06:57:00;95393.22;;;14.55;76.37
18201;BME280;9226;47.858;9.594;2023-08-07T06:59:26;95400.81;;;14.60;75.84
18201;BME280;9226;47.858;9.594;2023-08-07T07:01:51;95397.22;;;15.05;76.53
18201;BME280;9226;47.858;9.594;2023-08-07T07:04:17;95396.97;;;15.34;76.27
18201;BME280;9226;47.858;9.594;2023-08-07T07:06:43;95398.72;;;15.70;73.89
18201;BME280;9226;47.858;9.594;2023-08-07T07:09:08;95393.31;;;15.80;73.16
18201;BME280;9226;47.858;9.594;2023-08-07T07:11:34;95401.56;;;15.68;69.29
18201;BME280;9226;47.858;9.594;2023-08-07T07:14:00;95393.31;;;15.80;70.33
18201;BME280;9226;47.858;9.594;2023-08-07T07:16:25;95389.41;;;15.74;72.06
18201;BME280;9226;47.858;9.594;2023-08-07T07:18:51;95388.81;;;15.80;71.03
18201;BME280;9226;47.858;9.594;2023-08-07T07:21:17;95396.97;;;15.79;69.47
18201;BME280;9226;47.858;9.594;2023-08-07T07:23:43;95405.22;;;15.85;68.60
18201;BME280;9226;47.858;9.594;2023-08-07T07:26:08;95403.44;;;15.76;70.20
18201;BME280;9226;47.858;9.594;2023-08-07T07:28:33;95410.81;;;16.00;69.85
18201;BME280;9226;47.858;9.594;2023-08-07T07:30:59;95402.50;;;16.12;69.68
18201;BME280;9226;47.858;9.594;2023-08-07T07:33:24;95409.38;;;16.14;68.97
18201;BME280;9226;47.858;9.594;2023-08-07T07:35:49;95402.25;;;16.31;67.17
18201;BME280;9226;47.858;9.594;2023-08-07T07:38:15;95393.84;;;16.69;67.73
18201;BME280;9226;47.858;9.594;2023-08-07T07:40:41;95403.34;;;17.30;67.40
18201;BME280;9226;47.858;9.594;2023-08-07T07:43:07;95394.78;;;17.51;64.37
18201;BME280;9226;47.858;9.594;2023-08-07T07:45:32;95402.63;;;17.94;63.44
18201;BME280;9226;47.858;9.594;2023-08-07T07:48:04;95405.97;;;18.52;62.75
18201;BME280;9226;47.858;9.594;2023-08-07T07:50:31;95410.59;;;18.67;59.69
18201;BME280;9226;47.858;9.594;2023-08-07T07:52:57;95424.22;;;19.28;61.96
18201;BME280;9226;47.858;9.594;2023-08-07T07:55:22;95418.22;;;19.41;57.47
18201;BME280;9226;47.858;9.594;2023-08-07T07:57:48;95426.94;;;19.43;58.40
18201;BME280;9226;47.858;9.594;2023-08-07T08:00:13;95429.34;;;19.38;57.21
18201;BME280;9226;47.858;9.594;2023-08-07T08:02:40;95425.03;;;19.51;56.53
18201;BME280;9226;47.858;9.594;2023-08-07T08:05:07;95432.97;;;19.45;55.94
18201;BME280;9226;47.858;9.594;2023-08-07T08:07:32;95429.09;;;19.70;57.29
18201;BME280;9226;47.858;9.594;2023-08-07T08:09:59;95432.47;;;19.87;55.94
18201;BME280;9226;47.858;9.594;2023-08-07T08:12:25;95426.38;;;20.09;56.28
18201;BME280;9226;47.858;9.594;2023-08-07T08:14:50;95437.72;;;20.19;53.95
18201;BME280;9226;47.858;9.594;2023-08-07T08:17:16;95425.66;;;20.15;52.01
18201;BME280;9226;47.858;9.594;2023-08-07T08:19:41;95448.56;;;19.73;52.31
18201;BME280;9226;47.858;9.594;2023-08-07T08:22:06;95447.50;;;19.82;53.20
18201;BME280;9226;47.858;9.594;2023-08-07T08:24:32;95439.47;;;19.74;52.97
18201;BME280;9226;47.858;9.594;2023-08-07T08:26:58;95442.31;;;19.95;53.70
18201;BME280;9226;47.858;9.594;2023-08-07T08:29:23;95440.59;;;20.17;53.82
18201;BME280;9226;47.858;9.594;2023-08-07T08:31:48;95442.56;;;20.23;52.74
18201;BME280;9226;47.858;9.594;2023-08-07T08:34:14;95423.88;;;20.52;52.89
18201;BME280;9226;47.858;9.594;2023-08-07T08:36:39;95427.41;;;20.82;51.26
18201;BME280;9226;47.858;9.594;2023-08-07T08:39:05;95435.22;;;21.13;51.74
18201;BME280;9226;47.858;9.594;2023-08-07T08:41:31;95430.06;;;20.97;48.62
18201;BME280;9226;47.858;9.594;2023-08-07T08:43:57;95440.16;;;20.73;49.48
18201;BME280;9226;47.858;9.594;2023-08-07T08:46:25;95443.13;;;20.49;50.27
18201;BME280;9226;47.858;9.594;2023-08-07T08:48:56;95427.03;;;20.11;49.99
18201;BME280;9226;47.858;9.594;2023-08-07T08:51:24;95424.06;;;20.20;51.75
18201;BME280;9226;47.858;9.594;2023-08-07T08:53:53;95430.47;;;20.04;52.68
18201;BME280;9226;47.858;9.594;2023-08-07T08:56:21;95425.84;;;19.75;52.15
18201;BME280;9226;47.858;9.594;2023-08-07T08:58:48;95420.16;;;19.70;53.14
18201;BME280;9226;47.858;9.594;2023-08-07T09:01:14;95420.25;;;19.15;53.31
18201;BME280;9226;47.858;9.594;2023-08-07T09:03:42;95426.81;;;19.36;54.15
18201;BME280;9226;47.858;9.594;2023-08-07T09:06:08;95429.03;;;19.32;53.15
18201;BME280;9226;47.858;9.594;2023-08-07T09:08:35;95428.06;;;19.25;53.70
18201;BME280;9226;47.858;9.594;2023-08-07T09:11:02;95431.59;;;19.03;52.67
18201;BME280;9226;47.858;9.594;2023-08-07T09:13:28;95425.19;;;18.64;53.47
18201;BME280;9226;47.858;9.594;2023-08-07T09:15:53;95424.16;;;18.34;54.93
18201;BME280;9226;47.858;9.594;2023-08-07T09:18:19;95433.88;;;18.43;55.17
18201;BME280;9226;47.858;9.594;2023-08-07T09:20:48;95426.97;;;18.40;54.96
18201;BME280;9226;47.858;9.594;2023-08-07T09:23:16;95437.31;;;18.20;55.57
18201;BME280;9226;47.858;9.594;2023-08-07T09:25:42;95432.28;;;18.01;55.98
18201;BME280;9226;47.858;9.594;2023-08-07T09:28:07;95441.19;;;18.10;56.20
18201;BME280;9226;47.858;9.594;2023-08-07T09:30:35;95442.88;;;18.02;56.07
18201;BME280;9226;47.858;9.594;2023-08-07T09:33:03;95445.06;;;17.82;57.07
18201;BME280;9226;47.858;9.594;2023-08-07T09:35:30;95446.75;;;17.75;57.00
18201;BME280;9226;47.858;9.594;2023-08-07T09:37:57;95444.22;;;17.82;57.49
18201;BME280;9226;47.858;9.594;2023-08-07T09:40:22;95441.38;;;18.00;57.86
18201;BME280;9226;47.858;9.594;2023-08-07T09:42:52;95430.31;;;18.03;57.15
18201;BME280;9226;47.858;9.594;2023-08-07T09:45:22;95438.34;;;18.11;56.89
18201;BME280;9226;47.858;9.594;2023-08-07T09:48:01;95438.66;;;18.08;56.87
18201;BME280;9226;47.858;9.594;2023-08-07T09:50:27;95434.28;;;18.15;56.99
18201;BME280;9226;47.858;9.594;2023-08-07T09:52:53;95443.84;;;18.18;56.84
18201;BME280;9226;47.858;9.594;2023-08-07T09:55:19;95446.03;;;18.22;56.53
18201;BME280;9226;47.858;9.594;2023-08-07T09:57:45;95442.81;;;18.27;56.29
18201;BME280;9226;47.858;9.594;2023-08-07T10:00:11;95443.88;;;18.10;55.42
18201;BME280;9226;47.858;9.594;2023-08-07T10:02:38;95449.09;;;17.95;55.07
18201;BME280;9226;47.858;9.594;2023-08-07T10:05:07;95448.25;;;17.78;55.50
18201;BME280;9226;47.858;9.594;2023-08-07T10:07:34;95439.84;;;17.72;57.24
18201;BME280;9226;47.858;9.594;2023-08-07T10:09:59;95442.56;;;17.64;58.93
18201;BME280;9226;47.858;9.594;2023-08-07T10:12:28;95454.13;;;17.73;58.79
18201;BME280;9226;47.858;9.594;2023-08-07T10:14:55;95442.53;;;17.72;58.82
18201;BME280;9226;47.858;9.594;2023-08-07T10:17:23;95452.59;;;17.70;59.22
18201;BME280;9226;47.858;9.594;2023-08-07T10:19:50;95447.41;;;17.61;59.59
18201;BME280;9226;47.858;9.594;2023-08-07T10:22:17;95455.97;;;17.64;60.46
18201;BME280;9226;47.858;9.594;2023-08-07T10:24:47;95457.97;;;17.70;61.73
18201;BME280;9226;47.858;9.594;2023-08-07T10:27:14;95451.44;;;17.89;63.56
18201;BME280;9226;47.858;9.594;2023-08-07T10:29:41;95450.00;;;18.35;63.56
18201;BME280;9226;47.858;9.594;2023-08-07T10:32:07;95447.56;;;18.56;62.59
18201;BME280;9226;47.858;9.594;2023-08-07T10:34:34;95442.50;;;18.70;58.69
18201;BME280;9226;47.858;9.594;2023-08-07T10:36:59;95445.97;;;18.78;58.48
18201;BME280;9226;47.858;9.594;2023-08-07T10:39:25;95450.16;;;18.81;56.98
18201;BME280;9226;47.858;9.594;2023-08-07T10:41:54;95448.81;;;18.77;56.20
18201;BME280;9226;47.858;9.594;2023-08-07T10:44:24;95448.78;;;18.54;57.26
18201;BME280;9226;47.858;9.594;2023-08-07T10:46:52;95447.63;;;18.40;58.19
18201;BME280;9226;47.858;9.594;2023-08-07T10:49:38;95449.00;;;18.27;59.35
18201;BME280;9226;47.858;9.594;2023-08-07T10:52:07;95454.72;;;18.24;59.60
18201;BME280;9226;47.858;9.594;2023-08-07T10:54:53;95455.81;;;17.99;58.95
18201;BME280;9226;47.858;9.594;2023-08-07T10:57:20;95445.09;;;17.90;59.11
18201;BME280;9226;47.858;9.594;2023-08-07T11:02:26;95439.03;;;17.72;60.36
18201;BME280;9226;47.858;9.594;2023-08-07T11:04:52;95443.06;;;17.68;60.66
18201;BME280;9226;47.858;9.594;2023-08-07T11:07:25;95446.09;;;17.73;62.14
18201;BME280;9226;47.858;9.594;2023-08-07T11:09:50;95464.53;;;17.68;63.09
18201;BME280;9226;47.858;9.594;2023-08-07T11:12:16;95460.34;;;17.57;61.32
18201;BME280;9226;47.858;9.594;2023-08-07T11:14:41;95450.94;;;17.36;61.17
18201;BME280;9226;47.858;9.594;2023-08-07T11:17:07;95449.75;;;17.23;61.41
18201;BME280;9226;47.858;9.594;2023-08-07T11:19:33;95452.09;;;17.17;62.04
18201;BME280;9226;47.858;9.594;2023-08-07T11:21:58;95446.06;;;17.40;64.40
18201;BME280;9226;47.858;9.594;2023-08-07T11:24:27;95441.72;;;17.72;64.81
18201;BME280;9226;47.858;9.594;2023-08-07T11:26:52;95437.16;;;18.05;64.12
18201;BME280;9226;47.858;9.594;2023-08-07T11:29:21;95437.25;;;18.37;63.29
18201;BME280;9226;47.858;9.594;2023-08-07T11:31:48;95437.94;;;18.70;62.17
18201;BME280;9226;47.858;9.594;2023-08-07T11:34:13;95437.97;;;19.02;62.16
18201;BME280;9226;47.858;9.594;2023-08-07T11:36:43;95444.94;;;19.19;60.51
18201;BME280;9226;47.858;9.594;2023-08-07T11:39:09;95449.19;;;19.37;60.12
18201;BME280;9226;47.858;9.594;2023-08-07T11:41:34;95448.81;;;19.63;60.56
18201;BME280;9226;47.858;9.594;2023-08-07T11:44:00;95441.66;;;19.78;56.70
18201;BME280;9226;47.858;9.594;2023-08-07T11:46:25;95448.38;;;19.74;56.20
18201;BME280;9226;47.858;9.594;2023-08-07T11:48:51;95438.81;;;19.71;55.46
18201;BME280;9226;47.858;9.594;2023-08-07T11:51:17;95439.34;;;19.90;55.17
18201;BME280;9226;47.858;9.594;2023-08-07T11:53:45;95433.25;;;19.96;54.19
18201;BME280;9226;47.858;9.594;2023-08-07T11:56:12;95439.72;;;19.87;51.15
18201;BME280;9226;47.858;9.594;2023-08-07T11:58:45;95454.81;;;19.50;51.20
18201;BME280;9226;47.858;9.594;2023-08-07T12:01:13;95446.97;;;19.63;51.42
18201;BME280;9226;47.858;9.594;2023-08-07T12:03:49;95447.50;;;19.59;51.36
18201;BME280;9226;47.858;9.594;2023-08-07T12:06:14;95442.63;;;19.39;50.69
18201;BME280;9226;47.858;9.594;2023-08-07T12:08:41;95452.16;;;19.42;51.14
18201;BME280;9226;47.858;9.594;2023-08-07T12:11:11;95456.81;;;19.48;49.98
18201;BME280;9226;47.858;9.594;2023-08-07T12:13:38;95457.72;;;19.63;51.02
18201;BME280;9226;47.858;9.594;2023-08-07T12:16:05;95456.00;;;19.70;51.86
18201;BME280;9226;47.858;9.594;2023-08-07T12:18:31;95457.91;;;19.85;51.35
18201;BME280;9226;47.858;9.594;2023-08-07T12:20:59;95460.53;;;19.70;49.84
18201;BME280;9226;47.858;9.594;2023-08-07T12:23:25;95466.66;;;19.87;49.92
18201;BME280;9226;47.858;9.594;2023-08-07T12:25:50;95483.03;;;20.00;49.18
18201;BME280;9226;47.858;9.594;2023-08-07T12:28:17;95485.78;;;19.92;48.93
18201;BME280;9226;47.858;9.594;2023-08-07T12:30:45;95497.16;;;19.79;48.88
18201;BME280;9226;47.858;9.594;2023-08-07T12:33:12;95485.00;;;19.60;48.98
18201;BME280;9226;47.858;9.594;2023-08-07T12:35:37;95487.19;;;19.33;47.11
18201;BME280;9226;47.858;9.594;2023-08-07T12:38:03;95486.78;;;19.22;48.51
18201;BME280;9226;47.858;9.594;2023-08-07T12:40:32;95486.72;;;18.98;49.61
18201;BME280;9226;47.858;9.594;2023-08-07T12:43:00;95485.69;;;19.08;49.99
18201;BME280;9226;47.858;9.594;2023-08-07T12:45:26;95476.56;;;19.17;50.92
18201;BME280;9226;47.858;9.594;2023-08-07T12:47:51;95476.78;;;19.30;50.95
18201;BME280;9226;47.858;9.594;2023-08-07T12:50:16;95477.41;;;19.41;49.07
18201;BME280;9226;47.858;9.594;2023-08-07T12:52:42;95478.13;;;19.58;49.57
18201;BME280;9226;47.858;9.594;2023-08-07T12:55:08;95492.81;;;19.70;46.69
18201;BME280;9226;47.858;9.594;2023-08-07T12:57:33;95483.63;;;19.87;47.46
18201;BME280;9226;47.858;9.594;2023-08-07T12:59:59;95480.53;;;20.14;47.21
18201;BME280;9226;47.858;9.594;2023-08-07T13:02:24;95486.19;;;20.19;46.83
18201;BME280;9226;47.858;9.594;2023-08-07T13:04:49;95480.91;;;20.25;43.84
18201;BME280;9226;47.858;9.594;2023-08-07T13:07:16;95477.66;;;20.15;44.11
18201;BME280;9226;47.858;9.594;2023-08-07T13:09:42;95467.56;;;20.47;45.13